Time;durP1;ratioP1;P1;durP2;ratioP2;P2;SDS_P1;SDS_P2;PMS_P1;PMS_P2;Temp;Humidity;BMP_temperature;BMP_pressure;BME280_temperature;BME280_humidity;BME280_pressure;Samples;Min_cycle;Max_cycle;Signal;HPM_P1;HPM_P2
2022/03/22 00:02:18;;;;;;;13.53;9.87;;;6.80;66.30;;;;;;4987165;28;20452;-70
2022/03/22 00:05:04;;;;;;;14.57;10.50;;;6.90;65.00;;;;;;4984556;28;20447;-71
2022/03/22 00:07:50;;;;;;;15.80;11.00;;;6.70;65.30;;;;;;4992664;28;20414;-71
2022/03/22 00:10:36;;;;;;;15.70;10.70;;;6.60;65.80;;;;;;4984423;28;20446;-71
2022/03/22 00:13:22;;;;;;;12.30;9.80;;;6.50;66.30;;;;;;4989962;28;20584;-71
2022/03/22 00:16:08;;;;;;;12.73;9.70;;;6.40;67.70;;;;;;4986748;28;20518;-71
2022/03/22 00:18:54;;;;;;;13.97;11.67;;;6.30;67.40;;;;;;4980197;28;20896;-71
2022/03/22 00:21:40;;;;;;;15.43;10.50;;;6.20;67.50;;;;;;4984782;28;20445;-70
2022/03/22 00:24:25;;;;;;;14.73;9.77;;;6.10;67.00;;;;;;4985957;28;20430;-71
2022/03/22 00:27:11;;;;;;;12.93;10.37;;;6.10;68.30;;;;;;4987338;28;20419;-71
2022/03/22 00:29:58;;;;;;;15.60;10.97;;;5.80;68.90;;;;;;4981517;28;20442;-72
2022/03/22 00:32:45;;;;;;;17.83;11.10;;;5.70;73.40;;;;;;4983645;28;20613;-71
2022/03/22 00:35:35;;;;;;;17.37;11.27;;;5.60;71.90;;;;;;4981025;28;20460;-72
2022/03/22 00:38:21;;;;;;;18.43;11.10;;;5.80;72.80;;;;;;4978817;28;20589;-71
2022/03/22 00:41:07;;;;;;;12.67;10.27;;;5.70;73.40;;;;;;4983547;28;20436;-71
2022/03/22 00:43:52;;;;;;;13.00;10.40;;;5.90;72.60;;;;;;4984118;28;20429;-71
2022/03/22 00:46:38;;;;;;;14.70;10.67;;;5.90;71.90;;;;;;4980829;28;20427;-71
2022/03/22 00:49:25;;;;;;;16.03;11.50;;;5.60;72.90;;;;;;4982568;28;21031;-70
2022/03/22 00:52:12;;;;;;;13.80;10.07;;;5.40;74.50;;;;;;4986637;28;20446;-71
2022/03/22 00:54:57;;;;;;;18.13;12.00;;;5.40;76.40;;;;;;4986064;28;20456;-71
2022/03/22 00:57:44;;;;;;;15.53;10.87;;;5.20;76.40;;;;;;4986778;28;20450;-70
2022/03/22 01:00:30;;;;;;;14.13;10.90;;;5.00;78.90;;;;;;4984955;28;20425;-70
2022/03/22 01:03:17;;;;;;;25.43;12.00;;;4.90;79.00;;;;;;4987222;28;20473;-71
2022/03/22 01:06:04;;;;;;;16.60;11.33;;;5.00;79.50;;;;;;4985749;28;20466;-70
2022/03/22 01:08:50;;;;;;;17.83;10.70;;;5.10;79.20;;;;;;4979974;28;20424;-71
2022/03/22 01:11:36;;;;;;;13.93;9.83;;;4.90;79.70;;;;;;4983423;28;20490;-71
2022/03/22 01:14:22;;;;;;;18.73;10.80;;;4.90;79.50;;;;;;4982235;28;21025;-70
2022/03/22 01:17:07;;;;;;;15.07;11.03;;;4.80;79.50;;;;;;4985192;28;20400;-71
2022/03/22 01:19:56;;;;;;;16.13;11.80;;;4.80;80.10;;;;;;4978456;28;20507;-71
2022/03/22 01:22:46;;;;;;;16.33;11.33;;;4.80;79.40;;;;;;4981201;28;20469;-70
2022/03/22 01:25:34;;;;;;;14.77;10.57;;;5.00;79.20;;;;;;4984006;28;20456;-72
2022/03/22 01:28:20;;;;;;;16.87;11.00;;;4.70;80.70;;;;;;4985129;28;21110;-70
2022/03/22 01:31:05;;;;;;;15.80;10.73;;;4.40;82.10;;;;;;4988452;28;20445;-70
2022/03/22 01:33:51;;;;;;;15.70;10.97;;;4.50;82.50;;;;;;4983864;28;20817;-71
2022/03/22 01:36:37;;;;;;;13.63;10.57;;;4.50;83.10;;;;;;4980570;28;21273;-70
2022/03/22 01:39:24;;;;;;;17.57;12.77;;;4.60;82.70;;;;;;4983693;28;20462;-70
2022/03/22 01:42:11;;;;;;;15.20;10.73;;;4.50;82.70;;;;;;4982785;28;20501;-72
2022/03/22 01:44:57;;;;;;;17.80;11.43;;;4.60;83.10;;;;;;4977380;28;20437;-71
2022/03/22 01:47:44;;;;;;;18.37;12.90;;;4.40;83.30;;;;;;4984385;28;20516;-70
2022/03/22 01:50:30;;;;;;;14.90;10.80;;;4.30;84.20;;;;;;4986714;28;20429;-71
2022/03/22 01:53:16;;;;;;;16.60;11.27;;;4.30;83.90;;;;;;4986148;28;20448;-71
2022/03/22 01:56:04;;;;;;;19.87;12.50;;;4.30;83.60;;;;;;4978172;28;20590;-70
2022/03/22 01:58:50;;;;;;;18.00;12.40;;;4.30;85.20;;;;;;4976490;28;20458;-71
2022/03/22 02:07:45;;;;;;;17.27;12.18;;;4.50;82.50;;;;;;4981480;28;20445;-70
2022/03/22 02:10:31;;;;;;;14.37;11.10;;;4.40;82.70;;;;;;4984705;28;20218;-71
2022/03/22 02:13:18;;;;;;;14.23;10.52;;;4.00;84.40;;;;;;4982818;28;21061;-70
2022/03/22 02:16:04;;;;;;;21.23;11.90;;;3.80;85.20;;;;;;4990642;28;20209;-70
2022/03/22 02:18:51;;;;;;;19.97;12.50;;;3.70;87.40;;;;;;4980673;28;20591;-70
2022/03/22 02:21:40;;;;;;;17.20;11.37;;;3.60;90.00;;;;;;4985103;28;20409;-70
2022/03/22 02:24:27;;;;;;;15.17;11.57;;;3.70;90.30;;;;;;4988319;28;20431;-70
2022/03/22 02:27:13;;;;;;;21.20;11.83;;;3.70;90.50;;;;;;4986315;28;20454;-72
2022/03/22 02:29:59;;;;;;;17.17;12.20;;;3.70;90.10;;;;;;4980817;28;20786;-71
2022/03/22 02:32:51;;;;;;;19.35;13.07;;;3.60;90.30;;;;;;4984083;28;20581;-71
2022/03/22 02:35:36;;;;;;;17.50;11.83;;;3.70;90.60;;;;;;4983043;28;20197;-71
2022/03/22 02:38:22;;;;;;;15.63;10.90;;;4.00;90.50;;;;;;4981117;28;20567;-71
2022/03/22 02:41:15;;;;;;;17.30;12.70;;;3.90;90.50;;;;;;4985168;28;20470;-71
2022/03/22 02:44:00;;;;;;;21.93;12.67;;;3.80;90.20;;;;;;4982206;28;20478;-71
2022/03/22 02:46:46;;;;;;;16.10;10.57;;;3.90;90.40;;;;;;4988801;28;20419;-71
2022/03/22 02:49:34;;;;;;;14.90;10.90;;;3.90;89.60;;;;;;4988497;28;20469;-71
2022/03/22 02:52:20;;;;;;;14.87;10.33;;;3.80;90.10;;;;;;4987993;28;20420;-71
2022/03/22 02:55:07;;;;;;;16.17;11.80;;;3.70;89.90;;;;;;4988161;28;20473;-72
2022/03/22 02:57:55;;;;;;;20.65;12.75;;;3.50;90.80;;;;;;4980398;28;20669;-71
2022/03/22 03:00:40;;;;;;;15.00;11.53;;;3.30;91.00;;;;;;4985634;28;20195;-71
2022/03/22 03:03:26;;;;;;;17.77;10.73;;;3.30;92.50;;;;;;4979497;28;20451;-72
2022/03/22 03:06:12;;;;;;;16.23;11.43;;;3.40;92.60;;;;;;4988395;28;20206;-71
2022/03/22 03:08:58;;;;;;;16.17;10.95;;;3.60;92.30;;;;;;4984991;28;20209;-71
2022/03/22 03:11:44;;;;;;;16.67;11.75;;;3.40;92.60;;;;;;4986123;28;20214;-72
2022/03/22 03:14:40;;;;;;;22.77;11.60;;;3.40;92.30;;;;;;4989601;28;20225;-71
2022/03/22 03:17:25;;;;;;;16.43;11.50;;;3.50;91.80;;;;;;4983182;28;20445;-71
2022/03/22 03:20:11;;;;;;;14.20;11.65;;;3.40;92.30;;;;;;4987302;28;20447;-71
2022/03/22 03:22:57;;;;;;;22.00;11.48;;;3.40;92.50;;;;;;4986130;28;20249;-71
2022/03/22 03:25:43;;;;;;;14.60;10.77;;;3.30;92.40;;;;;;4978828;28;20211;-71
2022/03/22 03:28:29;;;;;;;22.52;12.40;;;3.10;92.80;;;;;;4984126;28;20682;-71
2022/03/22 03:31:16;;;;;;;18.73;11.75;;;3.20;93.30;;;;;;4983377;28;20215;-71
2022/03/22 03:34:02;;;;;;;15.23;11.90;;;3.20;93.30;;;;;;4985316;28;20219;-71
2022/03/22 03:36:47;;;;;;;16.53;12.23;;;3.40;93.30;;;;;;4984695;28;20207;-71
2022/03/22 03:39:33;;;;;;;16.67;11.68;;;3.50;92.70;;;;;;4983562;28;20800;-71
2022/03/22 03:42:19;;;;;;;15.80;11.68;;;3.60;92.20;;;;;;4989762;28;20265;-71
2022/03/22 03:48:09;;;;;;;15.00;11.48;;;3.50;92.10;;;;;;4982449;28;20779;-71
2022/03/22 03:50:55;;;;;;;20.80;12.43;;;3.30;92.70;;;;;;4985499;28;20685;-71
2022/03/22 03:53:41;;;;;;;16.70;12.33;;;3.20;92.90;;;;;;5004896;23;20616;-72
2022/03/22 03:56:26;;;;;;;20.65;13.18;;;3.10;93.30;;;;;;4988985;28;20415;-72
2022/03/22 03:59:12;;;;;;;17.92;12.50;;;2.80;94.50;;;;;;4988089;28;20687;-72
2022/03/22 04:01:58;;;;;;;18.48;11.65;;;2.90;95.30;;;;;;4992980;28;20226;-71
2022/03/22 04:04:47;;;;;;;17.83;11.60;;;3.10;95.00;;;;;;4995422;28;20217;-72
2022/03/22 04:07:32;;;;;;;17.10;11.70;;;3.30;94.70;;;;;;4997604;28;20203;-72
2022/03/22 04:10:18;;;;;;;16.23;11.97;;;3.20;94.30;;;;;;5010570;28;20209;-72
2022/03/22 04:13:04;;;;;;;14.87;11.37;;;3.20;94.60;;;;;;4999993;28;20418;-71
2022/03/22 04:15:50;;;;;;;17.20;12.03;;;2.90;94.10;;;;;;5004286;28;20422;-71
2022/03/22 04:18:36;;;;;;;14.27;11.25;;;2.90;94.50;;;;;;4998718;28;20451;-72
2022/03/22 04:21:23;;;;;;;16.70;12.57;;;2.90;94.70;;;;;;4995636;28;20265;-72
2022/03/22 04:24:11;;;;;;;17.50;12.55;;;3.10;94.50;;;;;;4994794;28;20337;-72
2022/03/22 04:32:41;;;;;;;18.70;12.47;;;3.20;94.10;;;;;;4996471;28;20210;-71
2022/03/22 04:33:05;;;;;;;16.63;11.63;;;3.30;94.00;;;;;;4997727;28;20204;-72
2022/03/22 04:35:51;;;;;;;14.23;11.10;;;3.10;94.00;;;;;;4987687;28;20450;-72
2022/03/22 04:38:38;;;;;;;15.47;11.03;;;2.90;94.20;;;;;;5001611;28;20804;-72
2022/03/22 04:41:24;;;;;;;16.55;12.63;;;3.00;94.40;;;;;;4994236;28;20599;-72
2022/03/22 04:44:10;;;;;;;16.85;12.13;;;2.80;94.60;;;;;;4993057;28;20234;-72
2022/03/22 04:46:57;;;;;;;16.20;10.73;;;3.00;94.60;;;;;;4986415;28;20279;-72
2022/03/22 04:49:42;;;;;;;14.75;11.68;;;3.00;94.50;;;;;;4987390;28;20428;-72
2022/03/22 04:58:52;;;;;;;17.98;12.02;;;2.90;95.00;;;;;;4970819;28;20450;-72
2022/03/22 05:01:38;;;;;;;18.45;11.93;;;2.60;95.40;;;;;;4973706;28;20245;-72
2022/03/22 05:04:24;;;;;;;21.83;13.00;;;2.50;95.30;;;;;;4987542;28;20229;-72
2022/03/22 05:07:10;;;;;;;20.17;12.50;;;2.60;96.20;;;;;;4990158;28;20453;-72
2022/03/22 05:09:55;;;;;;;16.20;12.75;;;2.40;95.70;;;;;;4997492;28;20294;-72
2022/03/22 05:12:43;;;;;;;15.70;11.98;;;2.50;96.30;;;;;;4993339;28;20222;-71
2022/03/22 05:15:28;;;;;;;19.17;11.88;;;2.70;95.90;;;;;;4991740;28;20589;-71
2022/03/22 05:18:14;;;;;;;22.20;12.50;;;2.70;95.80;;;;;;4997624;28;20288;-72
2022/03/22 05:21:02;;;;;;;18.08;12.68;;;2.50;96.00;;;;;;4994582;28;20420;-72
2022/03/22 05:23:48;;;;;;;20.58;12.07;;;2.60;95.70;;;;;;4990957;28;20257;-72
2022/03/22 05:26:33;;;;;;;20.13;12.70;;;2.20;96.60;;;;;;4987979;28;20205;-72
2022/03/22 05:29:21;;;;;;;17.60;11.98;;;2.50;97.00;;;;;;4992227;28;20218;-72
2022/03/22 05:32:08;;;;;;;18.00;12.23;;;2.60;96.80;;;;;;4992293;28;20274;-72
2022/03/22 05:34:53;;;;;;;17.40;13.30;;;2.60;96.70;;;;;;4988780;28;20225;-71
2022/03/22 05:37:39;;;;;;;26.13;12.77;;;2.50;96.70;;;;;;4997246;28;20207;-72
2022/03/22 05:40:25;;;;;;;15.10;11.13;;;2.60;97.20;;;;;;4990496;28;20212;-71
2022/03/22 05:43:10;;;;;;;18.05;12.43;;;2.50;96.40;;;;;;4992719;28;20288;-71
2022/03/22 05:45:58;;;;;;;17.42;11.70;;;2.40;97.50;;;;;;4986217;28;20207;-71
2022/03/22 05:48:44;;;;;;;18.63;13.15;;;2.60;97.40;;;;;;4992589;28;20366;-71
2022/03/22 05:51:30;;;;;;;19.27;13.77;;;2.50;97.20;;;;;;4989090;28;20285;-71
2022/03/22 05:54:15;;;;;;;17.13;12.83;;;2.70;96.90;;;;;;4987288;28;20231;-71
2022/03/22 05:57:01;;;;;;;22.70;12.57;;;2.70;96.80;;;;;;4993298;28;20451;-71
2022/03/22 05:59:47;;;;;;;16.30;11.90;;;2.70;97.30;;;;;;4984926;28;20812;-71
2022/03/22 06:02:37;;;;;;;19.45;12.00;;;2.80;96.80;;;;;;4988457;28;20441;-72
2022/03/22 06:05:23;;;;;;;17.27;12.98;;;2.80;97.30;;;;;;4988443;28;20241;-72
2022/03/22 06:08:09;;;;;;;24.50;14.23;;;2.70;97.30;;;;;;4987920;28;20270;-71
2022/03/22 06:10:54;;;;;;;27.80;13.77;;;2.90;97.40;;;;;;4983543;28;20434;-71
2022/03/22 06:13:40;;;;;;;15.83;11.50;;;3.00;97.80;;;;;;4989367;28;20203;-71
2022/03/22 06:16:25;;;;;;;16.63;12.50;;;3.10;97.60;;;;;;4998773;28;20462;-72
2022/03/22 06:19:12;;;;;;;18.50;13.23;;;3.00;97.80;;;;;;5000066;28;21017;-71
2022/03/22 06:21:58;;;;;;;16.03;11.50;;;3.20;98.10;;;;;;4997899;28;20556;-71
2022/03/22 06:24:44;;;;;;;18.67;13.17;;;3.40;98.00;;;;;;4992171;28;20594;-71
2022/03/22 06:27:29;;;;;;;22.67;12.80;;;3.40;97.50;;;;;;5000635;28;20410;-71
2022/03/22 06:30:16;;;;;;;15.50;10.97;;;3.50;97.00;;;;;;4993098;28;20796;-71
2022/03/22 06:33:08;;;;;;;15.80;12.00;;;3.60;97.20;;;;;;4999521;28;20449;-71
2022/03/22 06:35:55;;;;;;;19.40;13.60;;;3.70;97.10;;;;;;4986658;28;20574;-71
2022/03/22 06:38:41;;;;;;;16.37;12.20;;;3.70;97.10;;;;;;4996471;28;20597;-71
2022/03/22 06:41:26;;;;;;;20.13;13.10;;;3.80;96.70;;;;;;4988114;28;20442;-71
2022/03/22 06:44:12;;;;;;;20.73;12.13;;;3.90;96.60;;;;;;4987765;28;20465;-71
2022/03/22 06:46:57;;;;;;;19.67;13.10;;;4.10;95.80;;;;;;4994004;28;20431;-71
2022/03/22 06:49:43;;;;;;;17.40;11.90;;;4.20;94.80;;;;;;4993265;28;20448;-71
2022/03/22 06:52:30;;;;;;;18.03;13.10;;;4.20;94.60;;;;;;4996754;28;20981;-71
2022/03/22 06:55:18;;;;;;;23.13;12.57;;;4.20;95.00;;;;;;4998705;28;20447;-71
2022/03/22 06:58:05;;;;;;;16.70;11.17;;;4.30;94.30;;;;;;4998584;28;20503;-71
2022/03/22 07:00:51;;;;;;;17.90;12.17;;;4.50;95.10;;;;;;4991102;28;20420;-71
2022/03/22 07:03:37;;;;;;;23.50;13.23;;;4.50;95.20;;;;;;4996095;28;20472;-71
2022/03/22 07:06:22;;;;;;;20.40;13.00;;;4.60;95.00;;;;;;4993700;28;20427;-72
2022/03/22 07:09:09;;;;;;;18.85;12.20;;;4.80;96.00;;;;;;4997283;28;20561;-72
2022/03/22 07:11:56;;;;;;;18.30;11.63;;;4.80;96.30;;;;;;4999917;28;20289;-72
2022/03/22 07:14:42;;;;;;;20.90;13.53;;;5.10;96.00;;;;;;4992220;28;21071;-71
2022/03/22 07:17:28;;;;;;;20.50;12.70;;;5.20;94.20;;;;;;5007912;28;20461;-72
2022/03/22 07:20:14;;;;;;;25.13;13.30;;;5.30;95.20;;;;;;4993971;28;20453;-72
2022/03/22 07:23:00;;;;;;;18.53;13.20;;;5.50;95.60;;;;;;4998058;28;20499;-71
2022/03/22 07:25:47;;;;;;;20.07;12.13;;;5.70;95.40;;;;;;4988666;28;20548;-70
2022/03/22 07:28:34;;;;;;;21.93;12.80;;;6.00;95.60;;;;;;4991372;28;20931;-70
2022/03/22 07:31:19;;;;;;;17.43;11.50;;;6.20;94.90;;;;;;4997961;28;20395;-70
2022/03/22 07:34:06;;;;;;;27.13;13.77;;;6.40;93.00;;;;;;4991710;28;20577;-70
2022/03/22 07:36:52;;;;;;;20.30;13.60;;;6.60;93.00;;;;;;4999321;28;20451;-70
2022/03/22 07:39:38;;;;;;;20.97;14.27;;;6.80;92.90;;;;;;4988271;28;20465;-72
2022/03/22 07:42:27;;;;;;;26.80;15.30;;;7.00;92.00;;;;;;4994281;28;20426;-72
2022/03/22 07:45:13;;;;;;;26.17;13.87;;;7.30;89.20;;;;;;4987830;28;20543;-71
2022/03/22 07:47:59;;;;;;;25.40;13.70;;;7.50;86.10;;;;;;4991371;28;20416;-71
2022/03/22 07:53:48;;;;;;;23.10;12.00;;;7.80;81.10;;;;;;4989929;28;20437;-71
2022/03/22 07:56:34;;;;;;;16.40;11.43;;;8.00;72.40;;;;;;4986718;28;20452;-71
2022/03/22 07:59:22;;;;;;;22.33;13.90;;;8.20;72.80;;;;;;4989535;28;20509;-72
2022/03/22 08:02:08;;;;;;;19.40;12.63;;;8.40;70.60;;;;;;4985000;28;20426;-71
2022/03/22 08:04:54;;;;;;;18.60;12.30;;;8.60;69.70;;;;;;5000252;28;20448;-72
2022/03/22 08:07:39;;;;;;;16.80;12.70;;;8.80;68.50;;;;;;4993685;28;20547;-71
2022/03/22 08:10:25;;;;;;;18.60;12.17;;;9.00;68.40;;;;;;4989396;28;20963;-72
2022/03/22 08:13:11;;;;;;;18.97;12.60;;;9.10;64.10;;;;;;4987049;28;20588;-71
2022/03/22 08:15:58;;;;;;;16.73;12.33;;;9.30;61.20;;;;;;4989408;28;20966;-71
2022/03/22 08:18:44;;;;;;;17.40;11.13;;;9.50;61.00;;;;;;4989831;28;20447;-71
2022/03/22 08:21:30;;;;;;;17.40;11.33;;;9.80;62.00;;;;;;4993875;28;21002;-72
2022/03/22 08:24:16;;;;;;;15.70;10.63;;;10.00;59.20;;;;;;4987748;28;20488;-71
2022/03/22 08:27:02;;;;;;;19.17;11.47;;;10.20;52.60;;;;;;4999148;28;20866;-72
2022/03/22 08:29:48;;;;;;;17.17;10.90;;;10.30;53.60;;;;;;4988609;28;20420;-71
2022/03/22 08:32:35;;;;;;;21.80;10.60;;;10.50;48.70;;;;;;4993007;28;20427;-73
2022/03/22 08:35:23;;;;;;;14.60;10.33;;;10.70;43.40;;;;;;4991234;28;21063;-72
2022/03/22 08:38:10;;;;;;;14.80;10.13;;;10.70;38.30;;;;;;4990968;28;20434;-71
2022/03/22 08:40:56;;;;;;;13.97;10.47;;;10.80;41.80;;;;;;5001369;28;20403;-71
2022/03/22 08:43:42;;;;;;;16.03;11.30;;;11.00;42.20;;;;;;4990912;28;20448;-72
2022/03/22 08:46:27;;;;;;;14.20;10.20;;;11.20;38.90;;;;;;4998191;28;20426;-72
2022/03/22 08:49:14;;;;;;;18.13;9.97;;;11.30;39.60;;;;;;4999627;28;20456;-72
2022/03/22 08:52:00;;;;;;;15.77;9.93;;;11.40;40.60;;;;;;4996656;28;20438;-72
2022/03/22 08:54:46;;;;;;;17.23;10.00;;;11.60;38.60;;;;;;4995758;28;20477;-72
2022/03/22 08:57:32;;;;;;;15.17;10.70;;;11.70;38.70;;;;;;4989987;28;20412;-72
2022/03/22 09:00:20;;;;;;;14.57;11.33;;;11.80;38.40;;;;;;4991422;28;20575;-72
2022/03/22 09:03:06;;;;;;;19.97;11.33;;;11.90;36.60;;;;;;4988764;28;20431;-72
2022/03/22 09:06:12;;;;;;;17.30;11.13;;;12.10;36.50;;;;;;4993682;28;20478;-72
2022/03/22 09:08:57;;;;;;;15.03;10.10;;;12.20;35.00;;;;;;4993392;28;20437;-72
2022/03/22 09:11:43;;;;;;;14.40;9.87;;;12.30;36.00;;;;;;4987097;28;20450;-72
2022/03/22 09:14:29;;;;;;;19.10;11.53;;;12.50;35.20;;;;;;4989866;28;21240;-72
2022/03/22 09:17:14;;;;;;;11.80;9.90;;;12.60;35.60;;;;;;4991555;28;20451;-70
2022/03/22 09:20:00;;;;;;;20.97;11.70;;;12.70;31.80;;;;;;4991811;28;20445;-71
2022/03/22 09:22:49;;;;;;;13.77;10.00;;;12.90;31.80;;;;;;4988632;28;20450;-71
2022/03/22 09:25:34;;;;;;;14.10;10.60;;;12.90;30.50;;;;;;4992948;28;20456;-72
2022/03/22 09:28:20;;;;;;;14.53;10.60;;;12.90;30.70;;;;;;4989306;28;20412;-74
2022/03/22 09:31:06;;;;;;;14.00;9.80;;;13.00;32.10;;;;;;4987875;28;21341;-72
2022/03/22 09:33:52;;;;;;;16.67;10.57;;;13.20;32.30;;;;;;4992154;28;20983;-72
2022/03/22 09:36:38;;;;;;;17.03;10.33;;;13.30;34.40;;;;;;4991299;28;20532;-72
2022/03/22 09:39:25;;;;;;;13.80;10.50;;;13.40;32.50;;;;;;4990420;28;21062;-72
2022/03/22 09:42:10;;;;;;;14.27;10.67;;;13.60;30.90;;;;;;4989147;28;20821;-72
2022/03/22 09:44:57;;;;;;;16.37;12.27;;;13.70;30.50;;;;;;4992709;28;20482;-71
2022/03/22 09:47:44;;;;;;;20.73;12.00;;;13.80;30.60;;;;;;4991529;28;20440;-72
2022/03/22 09:53:33;;;;;;;14.27;10.70;;;14.00;30.90;;;;;;4987826;28;20439;-72
2022/03/22 09:56:21;;;;;;;13.13;9.93;;;14.10;31.20;;;;;;4995791;28;20438;-72
2022/03/22 09:59:07;;;;;;;23.63;12.60;;;14.10;30.60;;;;;;4990975;28;20830;-72
2022/03/22 10:01:54;;;;;;;15.77;11.03;;;14.20;31.60;;;;;;4993610;28;20461;-72
2022/03/22 10:04:41;;;;;;;15.00;10.70;;;14.40;30.40;;;;;;4987499;28;21015;-72
2022/03/22 10:07:28;;;;;;;13.63;10.47;;;14.50;29.20;;;;;;4987440;28;20422;-72
2022/03/22 10:10:17;;;;;;;15.73;11.70;;;14.40;29.20;;;;;;4989722;28;20420;-72
2022/03/22 10:13:05;;;;;;;19.73;10.17;;;14.60;30.90;;;;;;4988165;28;20461;-72
2022/03/22 10:15:51;;;;;;;13.57;10.67;;;14.80;30.20;;;;;;4987071;28;20421;-72
2022/03/22 10:18:37;;;;;;;17.67;10.97;;;14.90;29.50;;;;;;4985832;28;20438;-72
2022/03/22 10:21:23;;;;;;;18.03;11.30;;;15.10;29.40;;;;;;4991461;28;20445;-72
2022/03/22 10:24:14;;;;;;;16.53;10.80;;;15.20;29.20;;;;;;4988920;28;20458;-72
2022/03/22 10:26:59;;;;;;;23.90;11.70;;;15.40;27.80;;;;;;4989934;28;20449;-72
2022/03/22 10:29:46;;;;;;;13.27;10.07;;;15.20;27.80;;;;;;4992373;28;20447;-72
2022/03/22 10:32:33;;;;;;;15.10;10.50;;;15.30;29.20;;;;;;4989747;28;20424;-72
2022/03/22 10:35:21;;;;;;;14.50;10.80;;;15.50;28.50;;;;;;4984660;28;20431;-72
2022/03/22 10:38:09;;;;;;;19.40;10.60;;;15.70;30.00;;;;;;4989753;28;20428;-71
2022/03/22 10:40:55;;;;;;;13.37;10.33;;;15.80;28.60;;;;;;4989423;28;20437;-71
2022/03/22 10:43:40;;;;;;;14.70;10.30;;;16.00;27.90;;;;;;4991095;28;20599;-73
2022/03/22 10:46:30;;;;;;;14.47;11.63;;;16.20;28.00;;;;;;4988550;28;20465;-73
2022/03/22 10:49:17;;;;;;;14.30;10.70;;;16.40;28.60;;;;;;4988139;28;20450;-73
2022/03/22 10:52:08;;;;;;;14.77;11.10;;;16.40;28.20;;;;;;4982989;28;20469;-72
2022/03/22 10:54:53;;;;;;;23.10;12.17;;;16.60;27.40;;;;;;4990398;28;20465;-72
2022/03/22 10:57:41;;;;;;;17.43;12.00;;;16.80;28.10;;;;;;4983927;28;20454;-72
2022/03/22 11:00:29;;;;;;;16.67;12.37;;;16.90;28.10;;;;;;4991672;28;20489;-72
2022/03/22 11:03:18;;;;;;;25.90;13.40;;;17.10;27.80;;;;;;4993352;28;20522;-72
2022/03/22 11:06:04;;;;;;;14.53;11.67;;;17.00;27.10;;;;;;4994177;28;20955;-72
2022/03/22 11:08:50;;;;;;;16.63;11.50;;;17.00;27.50;;;;;;4987559;28;20771;-72
2022/03/22 11:11:37;;;;;;;21.60;12.73;;;17.00;27.20;;;;;;4985743;28;20483;-72
2022/03/22 11:14:23;;;;;;;16.60;12.10;;;17.10;26.40;;;;;;4992428;28;20432;-73
2022/03/22 11:17:09;;;;;;;15.80;12.07;;;17.20;26.80;;;;;;4988118;28;20421;-72
2022/03/22 11:19:58;;;;;;;21.90;14.90;;;17.30;26.30;;;;;;4988573;28;20989;-71
2022/03/22 11:22:47;;;;;;;17.27;13.43;;;17.10;27.10;;;;;;4995600;28;20465;-71
2022/03/22 11:25:36;;;;;;;23.60;13.43;;;17.10;28.30;;;;;;4990025;28;20444;-72
2022/03/22 11:28:24;;;;;;;18.17;13.83;;;16.90;28.30;;;;;;4997443;28;20426;-72
2022/03/22 11:31:10;;;;;;;17.90;13.57;;;16.80;28.70;;;;;;4996100;28;20536;-71
2022/03/22 11:34:12;;;;;;;21.30;14.03;;;17.00;28.20;;;;;;4990427;28;20477;-71
2022/03/22 11:37:01;;;;;;;22.67;14.07;;;17.20;28.10;;;;;;4991806;28;20448;-71
2022/03/22 11:42:58;;;;;;;20.43;13.87;;;17.10;28.60;;;;;;4991360;28;21056;-70
2022/03/22 11:45:48;;;;;;;21.03;13.80;;;17.10;28.60;;;;;;4989125;28;21023;-72
2022/03/22 11:48:34;;;;;;;18.43;13.00;;;17.20;26.70;;;;;;4985326;28;20437;-72
2022/03/22 11:51:24;;;;;;;21.40;12.90;;;17.30;28.00;;;;;;4988168;28;20537;-71
2022/03/22 11:54:12;;;;;;;22.13;12.80;;;17.50;26.20;;;;;;4981157;28;20614;-71
2022/03/22 11:56:59;;;;;;;20.30;14.50;;;17.60;25.60;;;;;;4987734;28;20473;-72
2022/03/22 11:59:47;;;;;;;18.47;12.67;;;17.70;27.20;;;;;;4989724;28;20890;-72
2022/03/22 12:02:34;;;;;;;19.87;14.57;;;17.60;27.00;;;;;;4999764;28;20438;-71
2022/03/22 12:05:19;;;;;;;17.60;13.40;;;17.70;26.90;;;;;;4992023;28;20474;-71
2022/03/22 12:08:06;;;;;;;20.13;13.30;;;17.60;28.10;;;;;;4990768;28;20628;-71
2022/03/22 12:10:55;;;;;;;18.97;13.87;;;17.60;26.90;;;;;;4995770;28;20586;-71
2022/03/22 12:13:44;;;;;;;18.17;14.13;;;17.70;26.60;;;;;;4987830;28;20416;-71
2022/03/22 12:16:30;;;;;;;16.13;13.00;;;17.80;26.40;;;;;;4985937;28;20409;-71
2022/03/22 12:19:25;;;;;;;18.40;14.40;;;18.00;27.50;;;;;;4987022;28;20451;-71
2022/03/22 12:22:11;;;;;;;19.20;13.57;;;18.20;27.30;;;;;;4992612;28;20831;-72
2022/03/22 12:24:59;;;;;;;18.10;13.83;;;18.30;26.30;;;;;;4993377;28;20967;-71
2022/03/22 12:27:54;;;;;;;20.50;12.87;;;18.40;25.60;;;;;;4991156;28;20434;-71
2022/03/22 12:30:42;;;;;;;22.50;15.60;;;18.50;25.20;;;;;;4984867;28;20553;-71
2022/03/22 12:33:28;;;;;;;24.10;14.10;;;18.40;27.50;;;;;;4984643;28;20485;-69
2022/03/22 12:36:14;;;;;;;18.63;14.30;;;18.60;26.30;;;;;;4993248;28;20563;-70
2022/03/22 12:38:59;;;;;;;18.00;13.47;;;18.70;25.90;;;;;;4989792;28;20437;-71
2022/03/22 12:41:46;;;;;;;16.90;13.13;;;18.90;27.50;;;;;;4994974;28;20573;-70
2022/03/22 12:44:35;;;;;;;25.80;14.90;;;19.00;25.60;;;;;;4993057;28;20513;-69
2022/03/22 12:47:21;;;;;;;19.47;13.93;;;19.20;26.40;;;;;;4991722;28;20434;-71
2022/03/22 12:50:09;;;;;;;22.80;16.03;;;19.30;25.90;;;;;;4987783;28;20509;-70
2022/03/22 12:52:55;;;;;;;19.87;15.07;;;19.30;25.80;;;;;;4986621;28;20795;-70
2022/03/22 12:55:42;;;;;;;24.83;16.07;;;19.10;25.20;;;;;;4992068;28;20508;-71
2022/03/22 12:58:28;;;;;;;23.67;15.93;;;18.80;25.40;;;;;;4985559;28;20906;-68
2022/03/22 13:01:16;;;;;;;21.83;15.33;;;18.80;25.40;;;;;;4992182;28;20697;-70
2022/03/22 13:04:01;;;;;;;20.90;14.80;;;18.50;25.20;;;;;;4982178;28;20466;-71
2022/03/22 13:06:47;;;;;;;18.07;15.47;;;18.70;25.40;;;;;;4988953;28;20454;-70
2022/03/22 13:12:37;;;;;;;24.90;13.30;;;19.10;25.70;;;;;;4992837;28;20417;-70
2022/03/22 13:15:23;;;;;;;20.40;16.03;;;19.10;25.70;;;;;;4991812;28;20441;-71
2022/03/22 13:18:10;;;;;;;29.20;16.50;;;19.50;26.00;;;;;;4988856;28;22685;-70
2022/03/22 13:21:01;;;;;;;24.30;16.00;;;19.60;26.10;;;;;;4983052;28;20458;-69
2022/03/22 13:23:47;;;;;;;21.90;14.40;;;19.70;26.10;;;;;;4989504;28;20434;-70
2022/03/22 13:26:33;;;;;;;17.13;14.83;;;19.80;25.90;;;;;;4989693;28;20474;-71
2022/03/22 13:29:19;;;;;;;22.00;16.50;;;20.10;24.90;;;;;;4986764;28;20454;-71
2022/03/22 13:32:08;;;;;;;19.80;15.07;;;20.20;24.00;;;;;;4989745;28;20461;-70
2022/03/22 13:35:01;;;;;;;19.83;15.00;;;20.10;24.80;;;;;;4985302;28;20604;-69
2022/03/22 13:37:49;;;;;;;19.23;16.13;;;20.10;24.40;;;;;;4991367;28;20457;-70
2022/03/22 13:40:37;;;;;;;18.47;15.13;;;20.10;24.50;;;;;;4989119;28;20458;-70
2022/03/22 13:43:22;;;;;;;19.13;14.73;;;19.90;24.30;;;;;;4993450;28;20446;-70
2022/03/22 13:46:08;;;;;;;16.73;13.33;;;20.20;24.90;;;;;;4988827;28;20474;-71
2022/03/22 13:48:55;;;;;;;17.70;14.90;;;20.70;24.80;;;;;;4996815;28;20430;-68
2022/03/22 13:51:42;;;;;;;19.73;15.57;;;20.40;23.80;;;;;;4989571;28;20417;-71
2022/03/22 13:54:28;;;;;;;21.17;15.17;;;20.40;22.80;;;;;;4988965;28;20489;-71
2022/03/22 13:57:13;;;;;;;19.13;15.20;;;20.50;24.00;;;;;;4988278;28;20524;-71
2022/03/22 14:00:00;;;;;;;18.80;15.00;;;20.50;24.80;;;;;;4989640;28;20450;-70
2022/03/22 14:02:46;;;;;;;18.30;14.77;;;20.50;23.90;;;;;;4984145;28;20438;-71
2022/03/22 14:05:33;;;;;;;23.50;14.33;;;20.30;23.20;;;;;;4989747;28;20474;-71
2022/03/22 14:08:22;;;;;;;22.10;14.20;;;20.50;24.70;;;;;;4984379;28;20454;-71
2022/03/22 14:11:08;;;;;;;20.10;15.30;;;20.90;24.70;;;;;;4989497;28;20816;-72
2022/03/22 14:13:56;;;;;;;21.60;15.20;;;20.70;22.60;;;;;;4988627;28;20470;-71
2022/03/22 14:16:41;;;;;;;24.20;15.53;;;20.50;22.80;;;;;;4990182;28;20422;-72
2022/03/22 14:19:26;;;;;;;20.70;15.20;;;20.00;24.30;;;;;;4988299;28;20450;-71
2022/03/22 14:22:12;;;;;;;21.93;15.87;;;20.10;24.20;;;;;;4990472;28;20437;-71
2022/03/22 14:24:59;;;;;;;18.00;14.80;;;20.20;23.40;;;;;;4984960;28;20433;-71
2022/03/22 14:27:46;;;;;;;21.70;17.03;;;20.30;24.00;;;;;;4991518;28;20427;-71
2022/03/22 14:30:33;;;;;;;20.23;15.17;;;20.20;24.30;;;;;;4988356;28;20532;-70
2022/03/22 14:33:19;;;;;;;21.20;15.43;;;20.30;24.30;;;;;;4978127;28;20458;-71
2022/03/22 14:36:05;;;;;;;19.83;15.80;;;20.50;24.10;;;;;;4980370;28;20473;-69
2022/03/22 14:38:51;;;;;;;18.80;14.77;;;20.20;23.80;;;;;;4985633;28;20951;-71
2022/03/22 14:41:38;;;;;;;22.43;16.43;;;20.20;23.50;;;;;;4983207;28;20474;-71
2022/03/22 14:44:24;;;;;;;18.27;14.80;;;20.40;23.40;;;;;;4992180;28;20497;-72